createdAt,value
2018-03-23T00:00:39.597Z,1.50
2018-03-23T00:03:07.105Z,1.50
2018-03-23T00:05:34.664Z,1.20
2018-03-23T00:08:02.913Z,1.30
2018-03-23T00:10:31.181Z,1.20
2018-03-23T00:12:58.680Z,1.30
2018-03-23T00:15:26.921Z,1.20
2018-03-23T00:17:54.421Z,1.20
2018-03-23T00:20:21.965Z,1.20
2018-03-23T00:22:50.210Z,1.20
2018-03-23T00:25:17.734Z,1.20
2018-03-23T00:27:45.213Z,1.30
2018-03-23T00:30:13.091Z,1.30
2018-03-23T00:32:40.596Z,1.20
2018-03-23T00:35:08.145Z,1.30
2018-03-23T00:37:36.762Z,0.80
2018-03-23T00:40:04.265Z,1.10
2018-03-23T00:42:33.253Z,1.20
2018-03-23T00:45:01.501Z,1.30
2018-03-23T00:47:29.005Z,1.20
2018-03-23T00:49:57.251Z,1.20
2018-03-23T00:52:24.733Z,1.20
2018-03-23T00:54:52.998Z,1.30
2018-03-23T00:57:26.254Z,1.30
2018-03-23T00:59:53.757Z,1.20
2018-03-23T01:02:22.005Z,1.20
2018-03-23T01:04:49.488Z,1.30
2018-03-23T01:07:16.994Z,1.10
2018-03-23T01:09:45.650Z,1.20
2018-03-23T01:12:13.131Z,1.20
2018-03-23T01:14:40.906Z,1.10
2018-03-23T01:17:09.310Z,1.10
2018-03-23T01:19:37.666Z,1.10
2018-03-23T01:22:05.178Z,1.00
2018-03-23T01:24:33.428Z,0.90
2018-03-23T01:27:01.229Z,0.90
2018-03-23T01:29:28.784Z,0.90
2018-03-23T01:31:56.337Z,0.90
2018-03-23T01:34:23.902Z,1.00
2018-03-23T01:36:51.409Z,0.80
2018-03-23T01:39:18.890Z,0.80
2018-03-23T01:41:46.369Z,0.90
2018-03-23T01:44:14.634Z,1.20
2018-03-23T01:46:42.885Z,1.20
2018-03-23T01:49:10.362Z,1.10
2018-03-23T01:51:37.873Z,1.00
2018-03-23T01:54:05.356Z,1.10
2018-03-23T01:56:32.838Z,1.20
2018-03-23T01:59:01.224Z,1.10
2018-03-23T02:01:29.470Z,1.20
2018-03-23T02:03:56.954Z,1.20
2018-03-23T02:06:25.225Z,1.00
2018-03-23T02:08:53.482Z,1.00
2018-03-23T02:11:20.983Z,1.00
2018-03-23T02:13:48.462Z,1.20
2018-03-23T02:16:15.940Z,1.20
2018-03-23T02:18:43.437Z,1.20
2018-03-23T02:21:11.684Z,0.90
2018-03-23T02:23:39.183Z,1.00
2018-03-23T02:26:06.980Z,1.10
2018-03-23T02:28:34.456Z,1.20
2018-03-23T02:31:01.960Z,1.10
2018-03-23T02:33:29.441Z,1.30
2018-03-23T02:35:56.942Z,1.30
2018-03-23T02:38:24.426Z,1.30
2018-03-23T02:40:52.673Z,1.40
2018-03-23T02:43:20.167Z,1.40
2018-03-23T02:45:47.648Z,1.40
2018-03-23T02:48:15.150Z,1.30
2018-03-23T02:50:42.634Z,1.30
2018-03-23T02:53:10.878Z,1.50
2018-03-23T02:55:38.373Z,1.50
2018-03-23T02:58:05.916Z,1.40
2018-03-23T03:00:34.182Z,1.40
2018-03-23T03:03:02.429Z,1.30
2018-03-23T03:05:29.906Z,1.30
2018-03-23T03:07:57.401Z,1.40
2018-03-23T03:10:24.985Z,1.40
2018-03-23T03:12:52.482Z,1.30
2018-03-23T03:15:20.061Z,1.30
2018-03-23T03:17:48.313Z,1.40
2018-03-23T03:20:15.812Z,1.40
2018-03-23T03:22:43.290Z,1.30
2018-03-23T03:25:10.785Z,1.30
2018-03-23T03:27:38.263Z,1.30
2018-03-23T03:30:06.502Z,1.20
2018-03-23T03:32:33.993Z,1.20
2018-03-23T03:35:02.237Z,1.00
2018-03-23T03:37:30.881Z,1.00
2018-03-23T03:39:58.413Z,1.00
2018-03-23T03:42:26.125Z,1.30
2018-03-23T03:44:53.889Z,1.30
2018-03-23T03:47:21.368Z,1.30
2018-03-23T03:49:48.865Z,1.30
2018-03-23T03:52:17.140Z,1.40
2018-03-23T03:54:45.662Z,1.40
2018-03-23T03:57:13.162Z,1.40
2018-03-23T03:59:40.640Z,1.40
2018-03-23T04:02:08.141Z,1.40
2018-03-23T04:04:37.561Z,1.70
2018-03-23T04:07:05.037Z,1.60
2018-03-23T04:09:32.529Z,1.70
2018-03-23T04:12:00.014Z,1.70
2018-03-23T04:14:27.517Z,1.50
2018-03-23T04:16:55.761Z,1.60
2018-03-23T04:19:23.241Z,1.60
2018-03-23T04:21:50.733Z,1.80
2018-03-23T04:24:18.218Z,1.70
2018-03-23T04:26:45.716Z,1.70
2018-03-23T04:29:13.200Z,1.70
2018-03-23T04:31:40.745Z,1.70
2018-03-23T04:34:09.377Z,1.50
2018-03-23T04:36:36.849Z,1.70
2018-03-23T04:39:04.349Z,1.70
2018-03-23T04:41:32.962Z,1.70
2018-03-23T04:44:00.455Z,1.70
2018-03-23T04:46:27.948Z,1.70
2018-03-23T04:48:56.557Z,1.80
2018-03-23T04:51:24.056Z,1.90
2018-03-23T04:53:51.529Z,1.80
2018-03-23T04:56:20.512Z,2.00
2018-03-23T04:58:50.037Z,1.90
2018-03-23T05:01:18.652Z,1.70
2018-03-23T05:08:56.246Z,2.00
2018-03-23T05:11:24.526Z,2.00
2018-03-23T05:13:52.764Z,2.10
2018-03-23T05:16:21.298Z,2.00
2018-03-23T05:18:51.060Z,1.90
2018-03-23T05:21:20.613Z,1.90
2018-03-23T05:23:49.958Z,1.90
2018-03-23T05:26:19.598Z,1.80
2018-03-23T05:28:49.568Z,2.00
2018-03-23T05:31:17.950Z,2.00
2018-03-23T05:33:46.388Z,1.80
2018-03-23T05:36:16.940Z,1.80
2018-03-23T05:38:46.484Z,1.80
2018-03-23T05:41:14.563Z,2.00
2018-03-23T05:43:44.433Z,2.00
2018-03-23T05:46:12.922Z,2.00
2018-03-23T05:48:41.986Z,1.90
2018-03-23T05:51:10.507Z,1.90
2018-03-23T05:53:39.649Z,2.00
2018-03-23T05:56:07.869Z,1.90
2018-03-23T05:58:37.286Z,1.80
2018-03-23T06:01:05.767Z,1.70
2018-03-23T06:03:34.670Z,1.90
2018-03-23T06:06:04.776Z,1.90
2018-03-23T06:08:33.092Z,1.80
2018-03-23T06:11:01.350Z,1.70
2018-03-23T06:13:28.836Z,1.70
2018-03-23T06:15:57.257Z,1.90
2018-03-23T06:18:24.733Z,1.80
2018-03-23T06:20:52.204Z,1.90
2018-03-23T06:23:19.776Z,1.80
2018-03-23T06:25:48.013Z,2.00
2018-03-23T06:28:15.537Z,1.90
2018-03-23T06:30:43.075Z,1.70
2018-03-23T06:33:11.352Z,1.90
2018-03-23T06:35:39.613Z,1.90
2018-03-23T06:38:07.861Z,2.00
2018-03-23T06:40:35.356Z,2.00
2018-03-23T06:43:03.592Z,1.90
2018-03-23T06:45:31.088Z,1.90
2018-03-23T06:47:59.369Z,2.00
2018-03-23T06:50:27.610Z,2.30
2018-03-23T06:52:55.100Z,2.30
2018-03-23T06:55:23.340Z,2.40
2018-03-23T06:57:50.821Z,2.40
2018-03-23T07:00:18.388Z,2.20
2018-03-23T07:02:46.629Z,2.50
2018-03-23T07:05:14.125Z,2.40
2018-03-23T07:07:42.401Z,2.50
2018-03-23T07:10:10.637Z,2.20
2018-03-23T07:12:38.133Z,2.20
2018-03-23T07:15:06.373Z,2.40
2018-03-23T07:20:03.543Z,2.50
2018-03-23T07:22:31.024Z,2.50
2018-03-23T07:24:59.553Z,2.60
2018-03-23T07:27:27.067Z,2.60
2018-03-23T07:29:54.892Z,2.60
2018-03-23T07:32:22.369Z,2.60
2018-03-23T07:34:49.842Z,2.60
2018-03-23T07:37:17.325Z,2.70
2018-03-23T07:39:44.800Z,2.70
2018-03-23T07:42:12.289Z,2.80
2018-03-23T07:44:39.758Z,2.70
2018-03-23T07:47:07.233Z,2.80
2018-03-23T07:49:35.490Z,2.90
2018-03-23T07:52:02.962Z,2.90
2018-03-23T07:54:31.225Z,2.90
2018-03-23T07:56:58.710Z,2.90
2018-03-23T07:59:26.949Z,3.00
2018-03-23T08:01:54.449Z,3.00
2018-03-23T08:04:21.925Z,2.90
2018-03-23T08:06:49.517Z,2.90
2018-03-23T08:09:16.956Z,2.90
2018-03-23T08:11:44.429Z,2.90
2018-03-23T08:14:11.922Z,3.10
2018-03-23T08:16:39.464Z,3.10
2018-03-23T08:19:07.733Z,3.10
2018-03-23T08:21:35.310Z,3.10
2018-03-23T08:24:03.569Z,3.30
2018-03-23T08:26:31.044Z,3.30
2018-03-23T08:28:59.957Z,3.50
2018-03-23T08:31:27.446Z,3.50
2018-03-23T08:33:54.916Z,3.50
2018-03-23T08:36:22.412Z,3.80
2018-03-23T08:38:50.652Z,3.50
2018-03-23T08:41:18.133Z,3.50
2018-03-23T08:43:45.624Z,3.80
2018-03-23T08:46:13.103Z,3.80
2018-03-23T08:48:40.597Z,3.60
2018-03-23T08:51:08.077Z,3.50
2018-03-23T08:53:36.317Z,3.40
2018-03-23T08:56:03.900Z,3.40
2018-03-23T08:58:32.153Z,4.10
2018-03-23T09:00:59.645Z,4.10
2018-03-23T09:03:27.917Z,4.70
2018-03-23T09:05:56.157Z,4.50
2018-03-23T09:08:23.746Z,4.50
2018-03-23T09:10:51.985Z,4.80
2018-03-23T09:13:19.477Z,4.80
2018-03-23T09:15:47.719Z,5.30
2018-03-23T09:18:15.197Z,5.20
2018-03-23T09:20:42.686Z,5.50
2018-03-23T09:23:10.157Z,5.70
2018-03-23T09:25:37.661Z,5.80
2018-03-23T09:28:05.136Z,5.80
2018-03-23T09:30:32.610Z,5.90
2018-03-23T09:33:00.861Z,5.80
2018-03-23T09:35:28.436Z,5.80
2018-03-23T09:37:56.693Z,6.00
2018-03-23T09:40:24.164Z,6.00
2018-03-23T09:42:52.422Z,6.20
2018-03-23T09:45:19.908Z,6.20
2018-03-23T09:47:48.146Z,6.00
2018-03-23T09:50:15.639Z,6.00
2018-03-23T09:52:43.881Z,6.10
2018-03-23T09:55:11.353Z,6.10
2018-03-23T09:57:38.920Z,6.10
2018-03-23T10:00:07.177Z,5.90
2018-03-23T10:02:34.671Z,5.90
2018-03-23T10:05:02.222Z,5.80
2018-03-23T10:07:30.461Z,5.80
2018-03-23T10:09:58.211Z,5.80
2018-03-23T10:12:25.685Z,5.60
2018-03-23T10:14:53.187Z,5.60
2018-03-23T10:17:20.661Z,5.70
2018-03-23T10:19:48.188Z,5.80
2018-03-23T10:22:16.449Z,5.90
2018-03-23T10:24:44.164Z,5.90
2018-03-23T10:27:11.662Z,5.90
2018-03-23T10:29:39.132Z,5.90
2018-03-23T10:32:07.377Z,5.80
2018-03-23T10:34:34.864Z,5.80
2018-03-23T10:37:03.105Z,5.70
2018-03-23T10:39:30.601Z,5.70
2018-03-23T10:41:58.842Z,5.60
2018-03-23T10:44:26.316Z,5.60
2018-03-23T10:46:53.807Z,5.50
2018-03-23T10:49:21.291Z,5.50
2018-03-23T10:51:48.810Z,5.40
2018-03-23T10:54:17.055Z,5.50
2018-03-23T10:56:44.525Z,5.50
2018-03-23T10:59:12.012Z,5.70
2018-03-23T11:15:03.289Z,5.60
2018-03-23T11:17:31.581Z,5.70
2018-03-23T11:19:59.821Z,5.60
2018-03-23T11:22:27.294Z,5.60
2018-03-23T11:24:54.780Z,5.70
2018-03-23T11:27:22.253Z,5.70
2018-03-23T11:29:49.773Z,5.80
2018-03-23T11:32:18.008Z,5.80
2018-03-23T11:34:45.508Z,5.80
2018-03-23T11:37:13.760Z,5.70
2018-03-23T11:39:41.234Z,5.70
2018-03-23T11:42:09.497Z,5.80
2018-03-23T11:44:36.972Z,5.80
2018-03-23T11:47:05.220Z,6.20
2018-03-23T11:49:34.218Z,6.30
2018-03-23T11:52:01.689Z,6.30
2018-03-23T11:54:29.181Z,6.40
2018-03-23T11:56:56.653Z,6.40
2018-03-23T11:59:24.125Z,6.30
2018-03-23T12:01:51.616Z,6.40
2018-03-23T12:04:19.856Z,6.60
2018-03-23T12:06:47.355Z,6.60
2018-03-23T12:09:15.883Z,6.50
2018-03-23T12:11:43.361Z,6.50
2018-03-23T12:14:10.857Z,6.50
2018-03-23T12:16:39.230Z,6.60
2018-03-23T12:19:07.491Z,6.60
2018-03-23T12:21:34.973Z,6.60
2018-03-23T12:24:02.458Z,6.70
2018-03-23T12:26:29.976Z,6.70
2018-03-23T12:28:58.212Z,6.70
2018-03-23T12:31:25.701Z,6.70
2018-03-23T12:33:53.181Z,6.70
2018-03-23T12:36:21.436Z,6.50
2018-03-23T12:38:48.905Z,6.50
2018-03-23T12:41:17.169Z,6.80
2018-03-23T12:43:44.641Z,6.80
2018-03-23T12:46:12.889Z,6.80
2018-03-23T12:48:41.181Z,6.70
2018-03-23T12:51:09.429Z,6.60
2018-03-23T12:53:36.925Z,6.60
2018-03-23T12:56:05.229Z,6.60
2018-03-23T12:58:32.759Z,6.60
2018-03-23T13:01:00.269Z,6.60
2018-03-23T13:03:27.744Z,6.70
2018-03-23T13:05:55.294Z,6.60
2018-03-23T13:08:22.783Z,6.40
2018-03-23T13:10:51.025Z,6.60
2018-03-23T13:13:18.760Z,6.60
2018-03-23T13:15:46.236Z,6.70
2018-03-23T13:18:13.738Z,7.00
2018-03-23T13:20:41.994Z,7.50
2018-03-23T13:23:09.469Z,7.50
2018-03-23T13:25:37.734Z,7.90
2018-03-23T13:28:06.058Z,8.10
2018-03-23T13:30:33.533Z,8.00
2018-03-23T13:33:01.024Z,8.20
2018-03-23T13:35:28.505Z,7.70
2018-03-23T13:37:56.003Z,7.80
2018-03-23T13:40:23.478Z,7.60
2018-03-23T13:42:51.781Z,7.40
2018-03-23T13:45:20.038Z,7.40
2018-03-23T13:47:47.513Z,7.40
2018-03-23T13:50:15.792Z,7.50
2018-03-23T13:52:44.026Z,7.60
2018-03-23T13:55:11.505Z,7.70
2018-03-23T13:57:38.994Z,7.70
2018-03-23T14:00:06.474Z,7.90
2018-03-23T14:02:34.087Z,7.90
2018-03-23T14:05:02.229Z,8.10
2018-03-23T14:07:29.733Z,8.10
2018-03-23T14:09:58.861Z,7.80
2018-03-23T14:12:26.337Z,7.80
2018-03-23T14:14:54.085Z,7.90
2018-03-23T14:17:21.565Z,7.80
2018-03-23T14:19:49.095Z,7.80
2018-03-23T14:22:16.890Z,7.70
2018-03-23T14:24:44.354Z,8.10
2018-03-23T14:27:11.837Z,8.40
2018-03-23T14:29:40.081Z,8.70
2018-03-23T14:32:07.573Z,8.70
2018-03-23T14:34:35.813Z,8.50
2018-03-23T14:37:03.289Z,8.60
2018-03-23T14:39:30.792Z,8.70
2018-03-23T14:41:58.290Z,8.90
2018-03-23T14:44:25.781Z,8.50
2018-03-23T14:46:54.053Z,8.30
2018-03-23T14:49:21.502Z,8.20
2018-03-23T14:51:49.761Z,7.70
2018-03-23T14:54:17.240Z,7.70
2018-03-23T14:56:45.498Z,7.80
2018-03-23T14:59:15.813Z,7.70
2018-03-23T15:01:43.397Z,7.80
2018-03-23T15:04:11.641Z,7.50
2018-03-23T15:06:39.132Z,7.50
2018-03-23T15:09:07.654Z,7.40
2018-03-23T15:11:35.422Z,7.40
2018-03-23T15:14:14.925Z,7.30
2018-03-23T15:16:42.473Z,7.20
2018-03-23T15:19:10.717Z,7.00
2018-03-23T15:21:38.213Z,7.00
2018-03-23T15:24:06.457Z,7.10
2018-03-23T15:26:34.052Z,7.10
2018-03-23T15:29:01.539Z,7.00
2018-03-23T15:31:29.053Z,6.90
2018-03-23T15:33:57.302Z,6.80
2018-03-23T15:36:24.777Z,6.80
2018-03-23T15:38:53.038Z,6.80
2018-03-23T15:41:20.549Z,6.70
2018-03-23T15:43:48.045Z,6.90
2018-03-23T15:46:15.517Z,7.00
2018-03-23T15:48:44.506Z,7.10
2018-03-23T15:51:12.000Z,7.10
2018-03-23T15:53:39.480Z,7.20
2018-03-23T15:56:06.995Z,7.30
2018-03-23T15:58:35.249Z,7.20
2018-03-23T16:01:02.981Z,7.20
2018-03-23T16:03:30.473Z,6.90
2018-03-23T16:05:57.950Z,6.70
2018-03-23T16:08:26.217Z,6.70
2018-03-23T16:10:54.484Z,6.70
2018-03-23T16:13:22.835Z,6.70
2018-03-23T16:15:50.313Z,6.70
2018-03-23T16:18:17.794Z,6.60
2018-03-23T16:20:46.169Z,6.40
2018-03-23T16:23:14.409Z,6.40
2018-03-23T16:25:41.889Z,6.40
2018-03-23T16:28:09.394Z,6.50
2018-03-23T16:30:36.873Z,6.40
2018-03-23T16:33:04.377Z,6.50
2018-03-23T16:35:32.653Z,6.40
2018-03-23T16:38:00.913Z,6.40
2018-03-23T16:53:32.777Z,7.30
2018-03-23T16:56:01.028Z,7.20
2018-03-23T16:58:28.506Z,7.20
2018-03-23T17:00:56.761Z,6.80
2018-03-23T17:03:24.233Z,6.80
2018-03-23T17:05:52.498Z,6.50
2018-03-23T17:08:19.974Z,6.50
2018-03-23T17:10:48.241Z,6.40
2018-03-23T17:13:16.481Z,6.20
2018-03-23T17:15:43.977Z,6.30
2018-03-23T17:18:12.218Z,6.10
2018-03-23T17:20:39.697Z,6.10
2018-03-23T17:23:07.194Z,6.20
2018-03-23T17:25:34.673Z,6.20
2018-03-23T17:28:02.181Z,6.10
2018-03-23T17:30:30.423Z,5.90
2018-03-23T17:32:57.957Z,5.90
2018-03-23T17:35:25.529Z,5.90
2018-03-23T17:37:53.059Z,5.80
2018-03-23T17:40:20.522Z,5.70
2018-03-23T17:42:47.998Z,5.60
2018-03-23T17:45:15.494Z,5.50
2018-03-23T17:47:42.989Z,5.40
2018-03-23T17:50:10.457Z,5.40
2018-03-23T17:52:37.970Z,5.10
2018-03-23T17:55:06.267Z,4.90
2018-03-23T17:57:33.762Z,4.90
2018-03-23T18:00:01.254Z,4.80
2018-03-23T18:02:28.732Z,4.70
2018-03-23T18:04:57.003Z,4.60
2018-03-23T18:07:25.278Z,4.50
2018-03-23T18:09:53.517Z,4.40
2018-03-23T18:12:21.014Z,4.40
2018-03-23T18:14:49.257Z,4.30
2018-03-23T18:17:16.855Z,4.30
2018-03-23T18:19:45.094Z,4.20
2018-03-23T18:22:12.575Z,4.20
2018-03-23T18:24:41.265Z,4.00
2018-03-23T18:27:09.508Z,3.90
2018-03-23T18:29:37.005Z,3.90
2018-03-23T18:32:04.481Z,3.80
2018-03-23T18:34:32.067Z,3.70
2018-03-23T18:36:59.567Z,3.70
2018-03-23T18:39:27.806Z,3.60
2018-03-23T18:41:55.305Z,3.60
2018-03-23T18:44:23.597Z,3.50
2018-03-23T18:46:51.077Z,3.50
2018-03-23T18:49:18.569Z,3.50
2018-03-23T18:51:46.045Z,3.30
2018-03-23T18:54:14.580Z,3.30
2018-03-23T18:56:42.053Z,3.20
2018-03-23T18:59:09.525Z,3.30
2018-03-23T19:01:37.013Z,3.30
2018-03-23T19:04:04.563Z,3.10
2018-03-23T19:06:32.821Z,2.80
2018-03-23T19:09:01.119Z,2.80
2018-03-23T19:11:28.677Z,2.80
2018-03-23T19:13:56.930Z,2.60
2018-03-23T19:16:24.409Z,2.60
2018-03-23T19:18:52.669Z,2.50
2018-03-23T19:21:20.402Z,2.50
2018-03-23T19:23:48.292Z,2.60
2018-03-23T19:26:16.731Z,2.60
2018-03-23T19:28:45.997Z,2.50
2018-03-23T19:31:14.111Z,2.40
2018-03-23T19:33:42.150Z,2.40
2018-03-23T19:36:10.803Z,2.40
2018-03-23T19:38:39.390Z,2.40
2018-03-23T19:41:07.634Z,2.30
2018-03-23T19:43:38.077Z,2.10
2018-03-23T19:46:07.092Z,2.10
2018-03-23T19:48:35.329Z,2.10
2018-03-23T19:51:02.837Z,2.10
2018-03-23T19:53:30.317Z,2.10
2018-03-23T19:55:57.837Z,2.00
2018-03-23T19:58:25.394Z,1.90
2018-03-23T20:00:52.870Z,1.90
2018-03-23T20:03:20.365Z,1.90
2018-03-23T20:05:49.294Z,1.80
2018-03-23T20:08:17.561Z,1.80
2018-03-23T20:10:45.809Z,2.00
2018-03-23T20:13:13.310Z,2.00
2018-03-23T20:15:41.836Z,1.90
2018-03-23T20:18:14.954Z,1.90
2018-03-23T20:20:48.040Z,1.80
2018-03-23T20:23:15.522Z,1.80
2018-03-23T20:25:43.779Z,2.10
2018-03-23T20:28:17.282Z,2.00
2018-03-23T20:30:45.852Z,2.30
2018-03-23T20:33:17.279Z,2.40
2018-03-23T20:35:45.854Z,2.20
2018-03-23T20:38:13.621Z,2.20
2018-03-23T20:40:41.121Z,2.20
2018-03-23T20:43:08.910Z,2.20
2018-03-23T20:45:37.630Z,2.30
2018-03-23T20:48:05.119Z,2.30
2018-03-23T20:50:32.605Z,2.20
2018-03-23T20:53:00.869Z,2.30
2018-03-23T20:55:29.151Z,2.30
2018-03-23T20:57:57.690Z,2.40
2018-03-23T21:00:25.192Z,2.40
2018-03-23T21:02:52.689Z,2.40
2018-03-23T21:05:20.213Z,2.40
2018-03-23T21:07:48.913Z,2.50
2018-03-23T21:10:16.802Z,2.50
2018-03-23T21:12:44.322Z,2.50
2018-03-23T21:15:12.570Z,2.60
2018-03-23T21:17:40.061Z,2.60
2018-03-23T21:20:08.306Z,2.60
2018-03-23T21:22:35.890Z,2.60
2018-03-23T21:25:04.157Z,2.60
2018-03-23T21:27:32.402Z,2.60
2018-03-23T21:29:59.902Z,2.70
2018-03-23T21:32:28.145Z,2.80
2018-03-23T21:34:55.631Z,2.80
2018-03-23T21:37:23.893Z,2.70
2018-03-23T21:39:51.374Z,2.70
2018-03-23T21:42:18.919Z,2.50
2018-03-23T21:44:47.173Z,2.60
2018-03-23T21:47:15.030Z,2.50
2018-03-23T21:49:43.293Z,2.60
2018-03-23T21:52:10.874Z,2.50
2018-03-23T21:54:38.357Z,2.40
2018-03-23T21:57:06.605Z,2.30
2018-03-23T21:59:34.097Z,2.30
2018-03-23T22:02:02.338Z,2.40
2018-03-23T22:04:29.826Z,2.40
2018-03-23T22:06:58.089Z,2.50
2018-03-23T22:09:26.367Z,2.50
2018-03-23T22:11:54.641Z,2.50
2018-03-23T22:14:22.901Z,2.50
2018-03-23T22:16:50.373Z,2.50
2018-03-23T22:19:18.634Z,2.60
2018-03-23T22:21:46.105Z,2.60
2018-03-23T22:24:14.361Z,2.50
2018-03-23T22:26:41.841Z,2.40
2018-03-23T22:29:10.081Z,2.50
2018-03-23T22:31:37.590Z,2.50
2018-03-23T22:34:05.131Z,2.40
2018-03-23T22:36:33.394Z,2.10
2018-03-23T22:39:00.878Z,2.10
2018-03-23T22:41:29.389Z,2.00
2018-03-23T22:43:56.882Z,2.00
2018-03-23T22:46:24.469Z,2.00
2018-03-23T22:48:52.730Z,2.10
2018-03-23T22:51:21.018Z,2.10
2018-03-23T22:53:49.265Z,2.10
2018-03-23T22:56:16.765Z,2.10
2018-03-23T22:58:44.239Z,2.20
2018-03-23T23:01:11.761Z,2.20
2018-03-23T23:03:40.005Z,2.30
2018-03-23T23:06:07.477Z,2.30
2018-03-23T23:08:35.053Z,2.30
2018-03-23T23:11:03.300Z,2.30
2018-03-23T23:13:30.794Z,2.30
2018-03-23T23:15:59.066Z,2.20
2018-03-23T23:18:27.305Z,2.10
2018-03-23T23:20:54.800Z,2.10
2018-03-23T23:23:24.113Z,2.10
2018-03-23T23:25:51.619Z,2.10
2018-03-23T23:28:19.101Z,2.20
2018-03-23T23:30:47.636Z,2.00
2018-03-23T23:33:15.141Z,2.00
2018-03-23T23:35:42.637Z,1.90
2018-03-23T23:38:10.413Z,1.90
2018-03-23T23:40:37.925Z,1.80
2018-03-23T23:43:06.169Z,1.70
2018-03-23T23:45:34.434Z,1.70
2018-03-23T23:48:01.941Z,1.70
2018-03-23T23:50:30.244Z,1.70
2018-03-23T23:52:57.677Z,1.70
2018-03-23T23:55:25.947Z,1.70
2018-03-23T23:57:54.190Z,1.60
